TimeCST,TemperatureF,Dew PointF,Humidity,Sea Level PressureIn,VisibilityMPH,Wind Direction,Wind SpeedMPH,Gust SpeedMPH,PrecipitationIn,Events,Conditions,WindDirDegrees,DateUTC
12:15 AM,21.2,19.4,93,29.83,10.0,NNW,4.6,-,N/A,,Mostly Cloudy,330,2013-02-24 06:15:00
12:35 AM,21.2,21.2,100,29.84,10.0,NW,3.5,-,N/A,,Scattered Clouds,310,2013-02-24 06:35:00
12:55 AM,17.6,17.6,100,29.84,1.8,Calm,Calm,-,N/A,,Overcast,0,2013-02-24 06:55:00
1:15 AM,19.4,19.4,100,29.85,5.0,Calm,Calm,-,N/A,,Overcast,0,2013-02-24 07:15:00
1:35 AM,19.4,19.4,100,29.85,10.0,Calm,Calm,-,N/A,Snow,Light Snow,0,2013-02-24 07:35:00
1:55 AM,17.6,17.6,100,29.86,10.0,Calm,Calm,-,N/A,Snow,Light Snow,0,2013-02-24 07:55:00
2:15 AM,19.4,19.4,100,29.86,10.0,Calm,Calm,-,N/A,,Overcast,0,2013-02-24 08:15:00
2:35 AM,21.2,21.2,100,29.86,10.0,Calm,Calm,-,N/A,Snow,Light Snow,0,2013-02-24 08:35:00
2:55 AM,19.4,19.4,100,29.87,10.0,Calm,Calm,-,N/A,Snow,Light Snow,0,2013-02-24 08:55:00
3:15 AM,21.2,21.2,100,29.87,10.0,Calm,Calm,-,N/A,Snow,Light Snow,0,2013-02-24 09:15:00
3:55 AM,19.4,19.4,100,29.88,10.0,Calm,Calm,-,N/A,Snow,Light Snow,0,2013-02-24 09:55:00
4:15 AM,21.2,21.2,100,29.89,7.0,Calm,Calm,-,N/A,Snow,Light Snow,0,2013-02-24 10:15:00
4:35 AM,19.4,19.4,100,29.89,10.0,Calm,Calm,-,N/A,Snow,Light Snow,0,2013-02-24 10:35:00
4:55 AM,19.4,19.4,100,29.90,10.0,WNW,3.5,-,N/A,Snow,Light Snow,300,2013-02-24 10:55:00
5:15 AM,19.4,19.4,100,29.91,10.0,Calm,Calm,-,N/A,,Mostly Cloudy,0,2013-02-24 11:15:00
5:35 AM,14.0,14.0,100,29.92,1.0,Calm,Calm,-,N/A,,Overcast,0,2013-02-24 11:35:00
5:55 AM,15.8,15.8,100,29.93,10.0,Calm,Calm,-,N/A,,Overcast,0,2013-02-24 11:55:00
6:15 AM,17.6,17.6,100,29.94,10.0,West,4.6,-,N/A,Snow,Light Snow,280,2013-02-24 12:15:00
6:35 AM,19.4,19.4,100,29.94,7.0,NNW,3.5,-,N/A,Snow,Light Snow,340,2013-02-24 12:35:00
6:55 AM,21.2,21.2,100,29.95,10.0,Calm,Calm,-,N/A,,Overcast,0,2013-02-24 12:55:00
7:15 AM,21.2,21.2,100,29.96,10.0,NNW,3.5,-,N/A,,Overcast,340,2013-02-24 13:15:00
7:35 AM,21.2,21.2,100,29.96,10.0,Calm,Calm,-,N/A,,Overcast,0,2013-02-24 13:35:00
7:55 AM,21.2,21.2,100,29.97,10.0,Calm,Calm,-,N/A,,Overcast,0,2013-02-24 13:55:00
8:15 AM,21.2,21.2,100,29.96,10.0,Calm,Calm,-,N/A,,Overcast,0,2013-02-24 14:15:00
8:35 AM,23.0,23.0,100,29.97,10.0,Calm,Calm,-,N/A,,Overcast,0,2013-02-24 14:35:00
8:55 AM,24.8,19.4,80,29.97,10.0,Calm,Calm,-,N/A,,Mostly Cloudy,0,2013-02-24 14:55:00
9:15 AM,26.6,19.4,74,29.98,10.0,NNE,3.5,-,0.01,,Overcast,30,2013-02-24 15:15:00
9:35 AM,26.6,19.4,74,29.99,10.0,Calm,Calm,-,0.01,,Overcast,0,2013-02-24 15:35:00
9:55 AM,26.6,17.6,69,29.99,10.0,North,6.9,-,0.01,,Overcast,350,2013-02-24 15:55:00
10:15 AM,26.6,17.6,69,29.99,10.0,Calm,Calm,-,N/A,,Overcast,0,2013-02-24 16:15:00
10:35 AM,28.4,19.4,69,29.99,10.0,Calm,Calm,-,N/A,,Overcast,0,2013-02-24 16:35:00
10:55 AM,28.4,19.4,69,30.00,10.0,ENE,5.8,-,N/A,,Overcast,70,2013-02-24 16:55:00
11:15 AM,28.4,17.6,64,30.00,10.0,Calm,Calm,-,0.01,,Overcast,0,2013-02-24 17:15:00
11:35 AM,30.2,19.4,64,30.00,10.0,NE,3.5,-,0.01,,Overcast,50,2013-02-24 17:35:00
11:55 AM,32.0,17.6,55,30.00,10.0,Calm,Calm,-,0.02,,Overcast,0,2013-02-24 17:55:00
12:15 PM,30.2,17.6,60,29.99,10.0,NE,3.5,-,N/A,,Overcast,50,2013-02-24 18:15:00
12:35 PM,30.2,19.4,64,29.99,10.0,NNW,4.6,-,0.01,,Overcast,340,2013-02-24 18:35:00
12:55 PM,28.4,19.4,69,29.99,10.0,Calm,Calm,-,0.02,,Overcast,0,2013-02-24 18:55:00
1:15 PM,30.2,19.4,64,29.99,10.0,Calm,Calm,-,N/A,,Overcast,0,2013-02-24 19:15:00
1:35 PM,30.2,19.4,64,30.00,10.0,Calm,Calm,-,N/A,,Overcast,0,2013-02-24 19:35:00
1:55 PM,30.2,19.4,64,30.01,10.0,WSW,3.5,-,N/A,,Overcast,250,2013-02-24 19:55:00
2:15 PM,30.2,21.2,69,30.01,10.0,West,8.1,-,N/A,,Overcast,260,2013-02-24 20:15:00
2:35 PM,30.2,19.4,64,30.01,10.0,WSW,6.9,-,N/A,,Overcast,250,2013-02-24 20:35:00
2:55 PM,28.4,19.4,69,30.01,10.0,WSW,4.6,-,N/A,,Overcast,240,2013-02-24 20:55:00
3:15 PM,28.4,19.4,69,30.01,10.0,West,6.9,-,N/A,,Overcast,280,2013-02-24 21:15:00
3:35 PM,28.4,19.4,69,30.01,10.0,WSW,4.6,-,N/A,,Overcast,250,2013-02-24 21:35:00
3:55 PM,28.4,19.4,69,30.02,10.0,WSW,3.5,-,N/A,,Overcast,250,2013-02-24 21:55:00
4:15 PM,28.4,19.4,69,30.02,10.0,WSW,4.6,-,N/A,,Overcast,250,2013-02-24 22:15:00
4:35 PM,28.4,19.4,69,30.03,10.0,West,3.5,-,N/A,,Overcast,270,2013-02-24 22:35:00
4:55 PM,28.4,19.4,69,30.03,10.0,NW,3.5,-,N/A,,Overcast,320,2013-02-24 22:55:00
5:15 PM,28.4,19.4,69,30.03,10.0,West,5.8,-,N/A,,Overcast,280,2013-02-24 23:15:00
5:35 PM,28.4,19.4,69,30.02,10.0,Calm,Calm,-,N/A,,Overcast,0,2013-02-24 23:35:00
5:55 PM,26.6,19.4,74,30.03,10.0,Calm,Calm,-,N/A,,Overcast,0,2013-02-24 23:55:00
6:15 PM,28.4,19.4,69,30.03,10.0,Calm,Calm,-,N/A,,Overcast,0,2013-02-25 00:15:00
6:35 PM,28.4,21.2,74,30.03,10.0,Calm,Calm,-,N/A,,Overcast,0,2013-02-25 00:35:00
6:55 PM,28.4,21.2,74,30.04,10.0,Calm,Calm,-,N/A,,Overcast,0,2013-02-25 00:55:00
7:15 PM,26.6,21.2,80,30.04,10.0,Calm,Calm,-,N/A,,Overcast,0,2013-02-25 01:15:00
7:35 PM,26.6,21.2,80,30.04,10.0,Calm,Calm,-,N/A,,Overcast,0,2013-02-25 01:35:00
7:55 PM,26.6,21.2,80,30.04,10.0,Calm,Calm,-,N/A,,Overcast,0,2013-02-25 01:55:00
8:15 PM,26.6,19.4,74,30.04,10.0,Calm,Calm,-,N/A,,Overcast,0,2013-02-25 02:15:00
8:35 PM,26.6,21.2,80,30.04,10.0,Calm,Calm,-,N/A,,Overcast,0,2013-02-25 02:35:00
8:55 PM,26.6,21.2,80,30.04,10.0,Calm,Calm,-,N/A,,Overcast,0,2013-02-25 02:55:00
9:15 PM,26.6,21.2,80,30.04,10.0,Calm,Calm,-,N/A,,Overcast,0,2013-02-25 03:15:00
9:35 PM,26.6,21.2,80,30.04,10.0,Calm,Calm,-,N/A,,Overcast,0,2013-02-25 03:35:00
9:55 PM,26.6,21.2,80,30.04,10.0,Calm,Calm,-,N/A,,Overcast,0,2013-02-25 03:55:00
10:15 PM,26.6,21.2,80,30.04,10.0,Calm,Calm,-,N/A,,Overcast,0,2013-02-25 04:15:00
10:35 PM,26.6,21.2,80,30.04,10.0,Calm,Calm,-,N/A,,Overcast,0,2013-02-25 04:35:00
10:55 PM,26.6,21.2,80,30.04,10.0,Calm,Calm,-,N/A,,Overcast,0,2013-02-25 04:55:00
11:15 PM,26.6,21.2,80,30.04,10.0,Calm,Calm,-,N/A,,Overcast,0,2013-02-25 05:15:00
11:35 PM,26.6,21.2,80,30.04,10.0,Calm,Calm,-,N/A,,Overcast,0,2013-02-25 05:35:00
11:55 PM,26.6,21.2,80,30.04,10.0,Calm,Calm,-,N/A,,Overcast,0,2013-02-25 05:55:00